header
chart

Reported and forecast weather at local airports

Important: not to be used for flight planning purposes.


EGBB METAR fetched   Wednesday 26th Apr @ 18:32:56
EGBB 261720Z 07009KT 9999 VCSH FEW049CB 08/M03 Q1019

EGCC METAR fetched   Wednesday 26th Apr @ 18:32:52
EGCC 261720Z AUTO 31011KT 9999 -RA BKN048 08/M02 Q1020

EGGP METAR fetched   Wednesday 26th Apr @ 18:32:53
EGGP 261720Z 29013KT 9999 FEW045 09/M02 Q1021

EGNH METAR fetched   Wednesday 26th Apr @ 18:32:54
EGNH 261720Z 31014KT 9999 FEW048 08/00 Q1021

EGNM METAR fetched   Wednesday 26th Apr @ 18:32:55
EGNM 261720Z 02006KT 350V070 9999 FEW028 06/M01 Q1019

EGOV METAR fetched   Wednesday 26th Apr @ 18:32:56
EGOV 261650Z 32011KT 9999 FEW040 09/M02 Q1022 BLU NOSIG


EGBB TAF fetched   Wednesday 26th Apr @ 18:32:56
TAF EGBB 261657Z 2618/2718 VRB03KT 9999 FEW045 TEMPO 2618/2620 8000 -SHRA PROB30 2702/2707 8000 BECMG 2706/2709 29010KT TEMPO 2711/2717 6000 RA PROB30 TEMPO 2711/2717 BKN012

EGCC TAF fetched   Wednesday 26th Apr @ 18:32:53
TAF EGCC 261657Z 2618/2724 28012KT 9999 FEW045 BECMG 2618/2621 VRB03KT TEMPO 2705/2714 7000 RA BKN010 BECMG 2706/2709 29012KT PROB40 TEMPO 2714/2722 8000 SHRA BKN012 BECMG 2718/2721 VRB03KT

EGGP TAF fetched   Wednesday 26th Apr @ 18:32:53
TAF EGGP 261657Z 2618/2718 30012KT 9999 FEW045 BECMG 2618/2621 VRB03KT BECMG 2706/2709 31012KT TEMPO 2706/2718 32015G25KT PROB40 TEMPO 2714/2717 8000 SHRA BKN012

EGNM TAF fetched   Wednesday 26th Apr @ 18:32:55
TAF TAF EGNM 261658Z 2618/2718 01012KT 9999 SCT040 BECMG 2618/2621 28006KT TEMPO 2704/2718 6000 -RA PROB30 TEMPO 2706/2718 BKN010

EGOV TAF fetched   Wednesday 26th Apr @ 18:32:57
TAF TAF EGOV 010100Z 3021/0102 CNL

Every effort is made to ensure that this information is free from errors but as it is provided by a third party the accuracy of the reports cannot be guaranteed.